createdAt,value
2022-10-02T00:00:56.088Z,12.50
2022-10-02T00:01:56.304Z,12.53
2022-10-02T00:02:56.088Z,12.51
2022-10-02T00:03:56.129Z,12.51
2022-10-02T00:04:56.035Z,12.51
2022-10-02T00:05:56.029Z,12.51
2022-10-02T00:06:56.058Z,12.51
2022-10-02T00:07:56.060Z,12.51
2022-10-02T00:08:55.990Z,12.53
2022-10-02T00:09:56.058Z,12.53
2022-10-02T00:10:55.977Z,12.55
2022-10-02T00:11:55.956Z,12.55
2022-10-02T00:12:55.977Z,12.54
2022-10-02T00:13:55.978Z,12.55
2022-10-02T00:14:55.918Z,12.54
2022-10-02T00:15:55.997Z,12.58
2022-10-02T00:16:55.966Z,12.55
2022-10-02T00:17:55.908Z,12.58
2022-10-02T00:18:55.879Z,12.58
2022-10-02T00:19:55.887Z,12.58
2022-10-02T00:20:55.967Z,12.55
2022-10-02T00:21:55.858Z,12.55
2022-10-02T00:22:55.877Z,12.55
2022-10-02T00:23:55.827Z,12.58
2022-10-02T00:24:55.817Z,12.55
2022-10-02T00:25:55.809Z,12.54
2022-10-02T00:26:55.867Z,12.54
2022-10-02T00:27:56.017Z,12.53
2022-10-02T00:28:55.786Z,12.54
2022-10-02T00:29:55.798Z,12.53
2022-10-02T00:30:55.774Z,12.51
2022-10-02T00:31:55.811Z,12.51
2022-10-02T00:32:55.767Z,12.50
2022-10-02T00:33:55.717Z,12.50
2022-10-02T00:34:55.737Z,12.51
2022-10-02T00:35:55.727Z,12.53
2022-10-02T00:36:55.678Z,12.53
2022-10-02T00:37:55.815Z,12.53
2022-10-02T00:38:55.680Z,12.53
2022-10-02T00:39:55.650Z,12.53
2022-10-02T00:40:55.659Z,12.55
2022-10-02T00:41:55.627Z,12.54
2022-10-02T00:42:55.820Z,12.54
2022-10-02T00:43:55.597Z,12.54
2022-10-02T00:44:55.595Z,12.55
2022-10-02T00:45:55.639Z,12.54
2022-10-02T00:46:55.595Z,12.59
2022-10-02T00:47:55.596Z,12.59
2022-10-02T00:48:55.605Z,12.58
2022-10-02T00:49:55.616Z,12.59
2022-10-02T00:50:55.586Z,12.61
2022-10-02T00:51:55.528Z,12.59
2022-10-02T00:52:55.535Z,12.61
2022-10-02T00:53:55.507Z,12.61
2022-10-02T00:54:55.506Z,12.62
2022-10-02T00:55:55.476Z,12.62
2022-10-02T00:56:55.557Z,12.62
2022-10-02T00:57:55.457Z,12.62
2022-10-02T00:58:55.456Z,12.63
2022-10-02T00:59:55.445Z,12.63
2022-10-02T01:00:55.468Z,12.65
2022-10-02T01:01:55.587Z,12.66
2022-10-02T01:02:55.487Z,12.68
2022-10-02T01:03:55.396Z,12.69
2022-10-02T01:04:55.386Z,12.69
2022-10-02T01:05:55.386Z,12.71
2022-10-02T01:06:55.356Z,12.71
2022-10-02T01:07:55.345Z,12.72
2022-10-02T01:08:55.375Z,12.73
2022-10-02T01:09:55.336Z,12.76
2022-10-02T01:10:55.314Z,12.76
2022-10-02T01:11:55.355Z,12.77
2022-10-02T01:12:55.294Z,12.77
2022-10-02T01:13:55.286Z,12.79
2022-10-02T01:14:55.326Z,12.80
2022-10-02T01:15:55.277Z,12.81
2022-10-02T01:16:55.289Z,12.83
2022-10-02T01:17:55.249Z,12.83
2022-10-02T01:18:55.275Z,12.84
2022-10-02T01:19:55.215Z,12.86
2022-10-02T01:20:55.217Z,12.87
2022-10-02T01:21:55.203Z,12.88
2022-10-02T01:22:55.195Z,12.91
2022-10-02T01:23:55.183Z,12.93
2022-10-02T01:24:56.726Z,12.91
2022-10-02T01:25:55.163Z,12.91
2022-10-02T01:26:55.157Z,12.91
2022-10-02T01:27:55.257Z,12.91
2022-10-02T01:28:55.134Z,12.93
2022-10-02T01:29:55.102Z,12.93
2022-10-02T01:30:55.135Z,12.95
2022-10-02T01:31:55.137Z,12.95
2022-10-02T01:32:55.117Z,12.95
2022-10-02T01:33:55.066Z,12.96
2022-10-02T01:34:55.057Z,12.96
2022-10-02T01:35:55.076Z,12.98
2022-10-02T01:36:55.077Z,12.96
2022-10-02T01:37:55.044Z,12.96
2022-10-02T01:38:55.024Z,12.96
2022-10-02T01:39:55.022Z,12.96
2022-10-02T01:40:54.996Z,12.98
2022-10-02T01:41:54.975Z,12.98
2022-10-02T01:42:55.025Z,12.98
2022-10-02T01:43:54.965Z,12.98
2022-10-02T01:44:54.996Z,12.98
2022-10-02T01:46:02.534Z,12.96
2022-10-02T01:46:54.953Z,12.98
2022-10-02T01:47:54.944Z,12.98
2022-10-02T01:48:54.984Z,12.96
2022-10-02T01:49:54.964Z,12.95
2022-10-02T01:50:54.893Z,12.95
2022-10-02T01:51:54.945Z,12.95
2022-10-02T01:52:54.874Z,12.93
2022-10-02T01:53:54.946Z,12.95
2022-10-02T01:54:54.824Z,12.95
2022-10-02T01:55:54.834Z,12.95
2022-10-02T01:56:54.824Z,12.95
2022-10-02T01:57:54.805Z,12.95
2022-10-02T01:58:54.815Z,12.96
2022-10-02T01:59:54.835Z,12.95
2022-10-02T02:00:54.831Z,12.95
2022-10-02T02:01:54.863Z,12.95
2022-10-02T02:02:54.743Z,12.95
2022-10-02T02:03:54.746Z,12.95
2022-10-02T02:04:54.762Z,12.93
2022-10-02T02:05:54.753Z,12.93
2022-10-02T02:06:54.751Z,12.91
2022-10-02T02:07:54.703Z,12.93
2022-10-02T02:08:58.471Z,12.91
2022-10-02T02:09:55.711Z,12.93
2022-10-02T02:10:54.682Z,12.93
2022-10-02T02:11:54.633Z,12.91
2022-10-02T02:12:54.631Z,12.91
2022-10-02T02:13:54.614Z,12.93
2022-10-02T02:14:54.605Z,12.93
2022-10-02T02:15:54.615Z,12.91
2022-10-02T02:16:54.602Z,12.91
2022-10-02T02:17:54.572Z,12.91
2022-10-02T02:18:54.555Z,12.91
2022-10-02T02:19:54.579Z,12.91
2022-10-02T02:20:54.545Z,12.93
2022-10-02T02:21:54.573Z,12.91
2022-10-02T02:22:54.543Z,12.93
2022-10-02T02:23:54.535Z,12.93
2022-10-02T02:24:54.544Z,12.91
2022-10-02T02:25:54.569Z,12.93
2022-10-02T02:26:54.523Z,12.91
2022-10-02T02:27:54.505Z,12.91
2022-10-02T02:28:54.533Z,12.91
2022-10-02T02:29:54.470Z,12.91
2022-10-02T02:30:54.443Z,12.91
2022-10-02T02:31:54.499Z,12.91
2022-10-02T02:32:54.483Z,12.91
2022-10-02T02:33:54.482Z,12.91
2022-10-02T02:34:54.423Z,12.91
2022-10-02T02:35:54.433Z,12.88
2022-10-02T02:36:54.423Z,12.88
2022-10-02T02:37:54.392Z,12.88
2022-10-02T02:38:54.352Z,12.88
2022-10-02T02:39:54.442Z,12.90
2022-10-02T02:40:54.353Z,12.90
2022-10-02T02:41:54.432Z,12.90
2022-10-02T02:42:54.313Z,12.90
2022-10-02T02:43:54.303Z,12.90
2022-10-02T02:44:54.314Z,12.90
2022-10-02T02:45:54.368Z,12.88
2022-10-02T02:46:54.275Z,12.90
2022-10-02T02:47:54.310Z,12.90
2022-10-02T02:48:54.243Z,12.90
2022-10-02T02:49:54.304Z,12.88
2022-10-02T02:50:54.222Z,12.88
2022-10-02T02:51:54.280Z,12.91
2022-10-02T02:52:54.263Z,12.93
2022-10-02T02:53:54.191Z,12.95
2022-10-02T02:54:54.192Z,12.98
2022-10-02T02:55:54.212Z,13.01
2022-10-02T02:56:54.154Z,13.01
2022-10-02T02:57:55.888Z,13.02
2022-10-02T02:58:54.143Z,13.04
2022-10-02T02:59:54.134Z,13.04
2022-10-02T03:00:54.183Z,13.05
2022-10-02T03:01:54.196Z,13.06
2022-10-02T03:02:54.253Z,13.08
2022-10-02T03:03:54.103Z,13.08
2022-10-02T03:04:54.072Z,13.06
2022-10-02T03:05:54.083Z,13.06
2022-10-02T03:06:54.072Z,13.06
2022-10-02T03:07:54.044Z,13.05
2022-10-02T03:08:54.099Z,13.06
2022-10-02T03:09:54.052Z,13.08
2022-10-02T03:10:54.061Z,13.09
2022-10-02T03:11:54.018Z,13.09
2022-10-02T03:12:54.022Z,13.08
2022-10-02T03:13:54.032Z,13.08
2022-10-02T03:14:54.011Z,13.09
2022-10-02T03:15:54.008Z,13.08
2022-10-02T03:16:53.983Z,13.08
2022-10-02T03:17:53.932Z,13.08
2022-10-02T03:18:53.920Z,13.08
2022-10-02T03:19:53.932Z,13.08
2022-10-02T03:20:53.911Z,13.09
2022-10-02T03:21:53.892Z,13.09
2022-10-02T03:22:53.903Z,13.11
2022-10-02T03:23:53.912Z,13.13
2022-10-02T03:24:53.901Z,13.14
2022-10-02T03:25:53.841Z,13.17
2022-10-02T03:26:53.851Z,13.20
2022-10-02T03:27:53.892Z,13.19
2022-10-02T03:28:56.400Z,13.19
2022-10-02T03:29:53.802Z,13.19
2022-10-02T03:30:53.832Z,13.20
2022-10-02T03:31:53.970Z,13.20
2022-10-02T03:32:53.856Z,13.21
2022-10-02T03:33:53.830Z,13.21
2022-10-02T03:34:53.761Z,13.24
2022-10-02T03:35:53.739Z,13.23
2022-10-02T03:36:53.783Z,13.24
2022-10-02T03:37:53.753Z,13.23
2022-10-02T03:39:19.869Z,13.24
2022-10-02T03:39:54.692Z,13.26
2022-10-02T03:40:53.789Z,13.26
2022-10-02T03:41:53.702Z,13.26
2022-10-02T03:42:53.687Z,13.26
2022-10-02T03:43:53.652Z,13.27
2022-10-02T03:44:53.633Z,13.26
2022-10-02T03:45:53.651Z,13.26
2022-10-02T03:46:53.743Z,13.26
2022-10-02T03:47:53.659Z,13.26
2022-10-02T03:48:53.602Z,13.24
2022-10-02T03:49:53.589Z,13.26
2022-10-02T03:50:53.613Z,13.26
2022-10-02T03:51:53.572Z,13.26
2022-10-02T03:52:53.552Z,13.27
2022-10-02T03:53:53.571Z,13.27
2022-10-02T03:54:53.578Z,13.26
2022-10-02T03:55:53.520Z,13.27
2022-10-02T03:56:53.522Z,13.27
2022-10-02T03:57:53.488Z,13.27
2022-10-02T03:58:53.488Z,13.27
2022-10-02T03:59:53.493Z,13.26
2022-10-02T04:00:53.501Z,13.27
2022-10-02T04:01:53.502Z,13.27
2022-10-02T04:02:53.451Z,13.29
2022-10-02T04:03:53.526Z,13.26
2022-10-02T04:04:53.442Z,13.26
2022-10-02T04:05:53.425Z,13.27
2022-10-02T04:06:53.446Z,13.27
2022-10-02T04:07:53.381Z,13.27
2022-10-02T04:08:53.372Z,13.27
2022-10-02T04:09:53.411Z,13.27
2022-10-02T04:10:53.345Z,13.32
2022-10-02T04:11:53.422Z,13.32
2022-10-02T04:12:53.321Z,13.30
2022-10-02T04:13:53.331Z,13.30
2022-10-02T04:14:53.310Z,13.30
2022-10-02T04:15:53.355Z,13.32
2022-10-02T04:16:53.291Z,13.35
2022-10-02T04:17:58.169Z,13.32
2022-10-02T04:18:54.272Z,13.30
2022-10-02T04:19:53.270Z,13.35
2022-10-02T04:20:53.230Z,13.36
2022-10-02T04:21:53.242Z,13.38
2022-10-02T04:22:53.212Z,13.36
2022-10-02T04:23:53.260Z,13.38
2022-10-02T04:24:53.203Z,13.39
2022-10-02T04:25:53.187Z,13.39
2022-10-02T04:26:53.179Z,13.40
2022-10-02T04:27:53.288Z,13.40
2022-10-02T04:28:53.151Z,13.43
2022-10-02T04:29:53.159Z,13.43
2022-10-02T04:30:54.280Z,13.45
2022-10-02T04:31:53.185Z,13.46
2022-10-02T04:32:53.101Z,13.49
2022-10-02T04:33:53.083Z,13.51
2022-10-02T04:34:53.066Z,13.53
2022-10-02T04:35:53.061Z,13.53
2022-10-02T04:36:53.102Z,13.53
2022-10-02T04:37:53.039Z,13.55
2022-10-02T04:38:53.021Z,13.57
2022-10-02T04:39:53.070Z,13.58
2022-10-02T04:40:53.005Z,13.61
2022-10-02T04:41:53.030Z,13.60
2022-10-02T04:42:53.057Z,13.60
2022-10-02T04:43:53.000Z,13.60
2022-10-02T04:44:52.999Z,13.60
2022-10-02T04:45:53.151Z,13.60
2022-10-02T04:46:52.940Z,13.61
2022-10-02T04:47:52.971Z,13.61
2022-10-02T04:48:52.931Z,13.61
2022-10-02T04:49:52.979Z,13.61
2022-10-02T04:50:52.948Z,13.63
2022-10-02T04:51:52.901Z,13.63
2022-10-02T04:52:52.881Z,13.64
2022-10-02T04:53:52.882Z,13.65
2022-10-02T04:54:52.861Z,13.65
2022-10-02T04:55:52.991Z,13.64
2022-10-02T04:56:52.931Z,13.63
2022-10-02T04:57:52.841Z,13.63
2022-10-02T04:58:52.840Z,13.61
2022-10-02T04:59:52.842Z,13.60
2022-10-02T05:00:58.041Z,13.63
2022-10-02T05:01:52.864Z,13.60
2022-10-02T05:02:52.773Z,13.61
2022-10-02T05:03:52.780Z,13.61
2022-10-02T05:04:52.771Z,13.58
2022-10-02T05:05:52.767Z,13.60
2022-10-02T05:06:52.770Z,13.58
2022-10-02T05:07:52.761Z,13.58
2022-10-02T05:08:52.709Z,13.58
2022-10-02T05:09:52.740Z,13.60
2022-10-02T05:10:52.729Z,13.58
2022-10-02T05:11:52.751Z,13.60
2022-10-02T05:12:52.680Z,13.60
2022-10-02T05:13:52.736Z,13.60
2022-10-02T05:14:52.662Z,13.60
2022-10-02T05:15:52.697Z,13.61
2022-10-02T05:16:53.340Z,13.61
2022-10-02T05:17:52.639Z,13.60
2022-10-02T05:18:52.659Z,13.60
2022-10-02T05:19:52.590Z,13.60
2022-10-02T05:20:52.609Z,13.58
2022-10-02T05:21:52.630Z,13.57
2022-10-02T05:22:52.619Z,13.58
2022-10-02T05:23:52.597Z,13.57
2022-10-02T05:24:52.549Z,13.55
2022-10-02T05:25:52.559Z,13.58
2022-10-02T05:26:52.610Z,13.57
2022-10-02T05:27:52.562Z,13.57
2022-10-02T05:28:52.640Z,13.57
2022-10-02T05:29:52.517Z,13.57
2022-10-02T05:30:52.486Z,13.57
2022-10-02T05:31:52.585Z,13.55
2022-10-02T05:32:52.504Z,13.57
2022-10-02T05:33:52.489Z,13.58
2022-10-02T05:34:52.509Z,13.58
2022-10-02T05:35:52.467Z,13.58
2022-10-02T05:36:52.511Z,13.58
2022-10-02T05:37:52.421Z,13.57
2022-10-02T05:38:52.387Z,13.55
2022-10-02T05:39:52.390Z,13.57
2022-10-02T05:40:52.428Z,13.57
2022-10-02T05:41:52.389Z,13.55
2022-10-02T05:42:52.388Z,13.57
2022-10-02T05:43:52.350Z,13.55
2022-10-02T05:44:52.349Z,13.55
2022-10-02T05:45:52.328Z,13.55
2022-10-02T05:46:52.374Z,13.54
2022-10-02T05:47:52.741Z,13.55
2022-10-02T05:48:52.270Z,13.55
2022-10-02T05:49:52.317Z,13.55
2022-10-02T05:50:52.274Z,13.55
2022-10-02T05:51:52.259Z,13.54
2022-10-02T05:52:52.235Z,13.54
2022-10-02T05:53:52.320Z,13.53
2022-10-02T05:54:52.229Z,13.53
2022-10-02T05:55:52.240Z,13.54
2022-10-02T05:56:52.213Z,13.53
2022-10-02T05:57:52.297Z,13.54
2022-10-02T05:58:52.183Z,13.51
2022-10-02T05:59:52.227Z,13.53
2022-10-02T06:00:52.209Z,13.54
2022-10-02T06:01:52.225Z,13.54
2022-10-02T06:02:52.149Z,13.54
2022-10-02T06:03:52.227Z,13.54
2022-10-02T06:04:52.109Z,13.55
2022-10-02T06:05:52.130Z,13.57
2022-10-02T06:06:52.138Z,13.57
2022-10-02T06:07:52.058Z,13.57
2022-10-02T06:08:52.060Z,13.58
2022-10-02T06:09:52.107Z,13.58
2022-10-02T06:10:52.131Z,13.58
2022-10-02T06:11:52.029Z,13.60
2022-10-02T06:12:52.048Z,13.60
2022-10-02T06:13:52.028Z,13.61
2022-10-02T06:14:52.029Z,13.61
2022-10-02T06:15:52.039Z,13.63
2022-10-02T06:16:52.112Z,13.64
2022-10-02T06:17:51.978Z,13.64
2022-10-02T06:18:51.998Z,13.65
2022-10-02T06:20:02.320Z,13.67
2022-10-02T06:20:53.009Z,13.67
2022-10-02T06:21:51.947Z,13.67
2022-10-02T06:22:51.938Z,13.68
2022-10-02T06:23:51.990Z,13.68
2022-10-02T06:24:51.922Z,13.68
2022-10-02T06:25:51.875Z,13.68
2022-10-02T06:26:51.948Z,13.67
2022-10-02T06:27:51.898Z,13.68
2022-10-02T06:28:51.831Z,13.68
2022-10-02T06:29:51.825Z,13.67
2022-10-02T06:30:51.949Z,13.68
2022-10-02T06:31:51.877Z,13.68
2022-10-02T06:32:51.822Z,13.71
2022-10-02T06:33:51.829Z,13.71
2022-10-02T06:34:51.779Z,13.71
2022-10-02T06:35:51.835Z,13.72
2022-10-02T06:36:51.906Z,13.72
2022-10-02T06:37:51.768Z,13.72
2022-10-02T06:38:51.737Z,13.72
2022-10-02T06:39:51.747Z,13.72
2022-10-02T06:40:51.698Z,13.75
2022-10-02T06:41:51.949Z,13.75
2022-10-02T06:42:51.707Z,13.76
2022-10-02T06:44:00.686Z,13.76
2022-10-02T06:44:51.705Z,13.79
2022-10-02T06:45:51.694Z,13.79
2022-10-02T06:46:51.679Z,13.82
2022-10-02T06:47:51.649Z,13.80
2022-10-02T06:48:51.947Z,13.83
2022-10-02T06:49:51.609Z,13.85
2022-10-02T06:50:51.986Z,13.86
2022-10-02T06:51:51.587Z,13.86
2022-10-02T06:52:51.589Z,13.88
2022-10-02T06:53:51.572Z,13.88
2022-10-02T06:54:51.555Z,13.88
2022-10-02T06:55:51.554Z,13.88
2022-10-02T06:56:51.568Z,13.90
2022-10-02T06:57:51.529Z,13.90
2022-10-02T06:58:51.508Z,13.91
2022-10-02T06:59:51.497Z,13.93
2022-10-02T07:00:51.529Z,13.93
2022-10-02T07:01:56.410Z,13.94
2022-10-02T07:02:52.469Z,13.94
2022-10-02T07:03:51.447Z,13.96
2022-10-02T07:04:51.436Z,13.97
2022-10-02T07:05:51.448Z,13.97
2022-10-02T07:06:51.451Z,13.97
2022-10-02T07:07:51.457Z,13.98
2022-10-02T07:08:51.466Z,14.01
2022-10-02T07:09:51.406Z,14.01
2022-10-02T07:10:51.378Z,14.03
2022-10-02T07:11:51.407Z,14.03
2022-10-02T07:12:51.406Z,14.04
2022-10-02T07:13:51.370Z,14.05
2022-10-02T07:14:51.340Z,14.08
2022-10-02T07:15:51.443Z,14.09
2022-10-02T07:16:51.397Z,14.11
2022-10-02T07:17:51.447Z,14.12
2022-10-02T07:18:51.287Z,14.15
2022-10-02T07:19:51.487Z,14.15
2022-10-02T07:20:51.289Z,14.16
2022-10-02T07:21:51.278Z,14.19
2022-10-02T07:22:51.259Z,14.21
2022-10-02T07:23:51.247Z,14.23
2022-10-02T07:24:51.287Z,14.28
2022-10-02T07:25:51.220Z,14.30
2022-10-02T07:26:51.308Z,14.31
2022-10-02T07:27:51.268Z,14.33
2022-10-02T07:28:51.237Z,14.36
2022-10-02T07:29:51.163Z,14.37
2022-10-02T07:30:51.170Z,14.37
2022-10-02T07:31:51.180Z,14.38
2022-10-02T07:32:51.148Z,14.40
2022-10-02T07:33:51.227Z,14.41
2022-10-02T07:34:51.127Z,14.41
2022-10-02T07:35:51.089Z,14.44
2022-10-02T07:36:51.268Z,14.44
2022-10-02T07:37:51.079Z,14.45
2022-10-02T07:38:51.161Z,14.45
2022-10-02T07:39:51.226Z,14.46
2022-10-02T07:40:51.109Z,14.46
2022-10-02T07:41:51.069Z,14.49
2022-10-02T07:42:51.121Z,14.51
2022-10-02T07:43:51.062Z,14.51
2022-10-02T07:44:51.046Z,14.49
2022-10-02T07:45:58.059Z,14.51
2022-10-02T07:46:50.985Z,14.51
2022-10-02T07:47:51.046Z,14.52
2022-10-02T07:48:50.934Z,14.52
2022-10-02T07:49:50.935Z,14.53
2022-10-02T07:50:50.945Z,14.53
2022-10-02T07:51:50.937Z,14.53
2022-10-02T07:52:50.908Z,14.53
2022-10-02T07:53:50.887Z,14.55
2022-10-02T07:54:50.894Z,14.55
2022-10-02T07:55:50.915Z,14.56
2022-10-02T07:56:50.904Z,14.58
2022-10-02T07:57:50.845Z,14.58
2022-10-02T07:58:50.825Z,14.59
2022-10-02T07:59:50.815Z,14.61
2022-10-02T08:00:50.805Z,14.61
2022-10-02T08:01:50.907Z,14.63
2022-10-02T08:02:50.881Z,14.64
2022-10-02T08:03:50.781Z,14.67
2022-10-02T08:04:50.763Z,14.67
2022-10-02T08:05:50.766Z,14.67
2022-10-02T08:06:50.764Z,14.71
2022-10-02T08:07:50.921Z,14.74
2022-10-02T08:08:50.825Z,14.77
2022-10-02T08:09:50.868Z,14.78
2022-10-02T08:10:50.694Z,14.82
2022-10-02T08:11:50.704Z,14.83
2022-10-02T08:12:50.714Z,14.85
2022-10-02T08:13:51.407Z,14.87
2022-10-02T08:14:50.644Z,14.87
2022-10-02T08:15:51.037Z,14.92
2022-10-02T08:16:51.478Z,14.90
2022-10-02T08:17:50.724Z,14.92
2022-10-02T08:18:50.682Z,14.95
2022-10-02T08:19:50.693Z,14.97
2022-10-02T08:20:50.606Z,15.01
2022-10-02T08:21:50.613Z,15.03
2022-10-02T08:22:50.624Z,15.05
2022-10-02T08:23:50.584Z,15.05
2022-10-02T08:24:50.618Z,15.07
2022-10-02T08:25:50.733Z,15.10
2022-10-02T08:26:50.609Z,15.11
2022-10-02T08:27:50.867Z,15.11
2022-10-02T08:28:50.504Z,15.12
2022-10-02T08:29:50.533Z,15.14
2022-10-02T08:30:50.485Z,15.14
2022-10-02T08:31:50.557Z,15.19
2022-10-02T08:32:50.576Z,15.22
2022-10-02T08:33:50.475Z,15.25
2022-10-02T08:34:50.435Z,15.26
2022-10-02T08:35:50.436Z,15.26
2022-10-02T08:36:50.428Z,15.27
2022-10-02T08:37:50.405Z,15.26
2022-10-02T08:38:54.449Z,15.26
2022-10-02T08:39:50.419Z,15.29
2022-10-02T08:40:50.375Z,15.30
2022-10-02T08:41:50.378Z,15.32
2022-10-02T08:42:50.356Z,15.33
2022-10-02T08:43:50.336Z,15.36
2022-10-02T08:44:50.326Z,15.38
2022-10-02T08:45:50.378Z,15.38
2022-10-02T08:46:50.349Z,15.40
2022-10-02T08:47:50.295Z,15.33
2022-10-02T08:48:50.295Z,15.35
2022-10-02T08:49:50.276Z,15.33
2022-10-02T08:50:50.299Z,15.35
2022-10-02T08:51:50.245Z,15.33
2022-10-02T08:52:50.247Z,15.33
2022-10-02T08:53:50.238Z,15.32
2022-10-02T08:54:50.217Z,15.33
2022-10-02T08:55:50.221Z,15.32
2022-10-02T08:56:50.254Z,15.35
2022-10-02T08:57:50.187Z,15.33
2022-10-02T08:58:50.177Z,15.35
2022-10-02T08:59:50.166Z,15.35
2022-10-02T09:00:50.183Z,15.35
2022-10-02T09:01:50.212Z,15.38
2022-10-02T09:02:50.255Z,15.38
2022-10-02T09:03:50.115Z,15.36
2022-10-02T09:04:50.146Z,15.35
2022-10-02T09:05:50.105Z,15.36
2022-10-02T09:06:50.085Z,15.36
2022-10-02T09:07:50.066Z,15.38
2022-10-02T09:08:50.137Z,15.38
2022-10-02T09:09:50.053Z,15.36
2022-10-02T09:10:50.046Z,15.36
2022-10-02T09:11:50.058Z,15.36
2022-10-02T09:12:50.066Z,15.36
2022-10-02T09:13:50.006Z,15.38
2022-10-02T09:14:50.015Z,15.38
2022-10-02T09:15:49.986Z,15.38
2022-10-02T09:16:50.020Z,15.38
2022-10-02T09:17:49.966Z,15.40
2022-10-02T09:18:50.006Z,15.41
2022-10-02T09:19:49.975Z,15.41
2022-10-02T09:20:49.945Z,15.41
2022-10-02T09:21:49.964Z,15.44
2022-10-02T09:22:49.925Z,15.45
2022-10-02T09:23:49.895Z,15.47
2022-10-02T09:24:49.885Z,15.50
2022-10-02T09:25:49.875Z,15.51
2022-10-02T09:26:49.864Z,15.54
2022-10-02T09:27:49.944Z,15.56
2022-10-02T09:28:49.887Z,15.58
2022-10-02T09:29:49.875Z,15.60
2022-10-02T09:30:49.824Z,15.62
2022-10-02T09:31:49.896Z,15.63
2022-10-02T09:32:49.794Z,15.66
2022-10-02T09:33:49.796Z,15.66
2022-10-02T09:34:49.785Z,15.68
2022-10-02T09:35:49.816Z,15.68
2022-10-02T09:36:49.757Z,15.70
2022-10-02T09:37:49.742Z,15.72
2022-10-02T09:38:49.736Z,15.73
2022-10-02T09:39:49.724Z,15.73
2022-10-02T09:40:49.714Z,15.72
2022-10-02T09:41:49.732Z,15.72
2022-10-02T09:42:49.712Z,15.69
2022-10-02T09:43:49.755Z,15.69
2022-10-02T09:44:49.705Z,15.68
2022-10-02T09:45:49.748Z,15.69
2022-10-02T09:46:49.654Z,15.70
2022-10-02T09:47:49.662Z,15.69
2022-10-02T09:48:49.625Z,15.69
2022-10-02T09:49:49.616Z,15.69
2022-10-02T09:50:49.723Z,15.68
2022-10-02T09:51:49.596Z,15.68
2022-10-02T09:52:49.643Z,15.68
2022-10-02T09:53:49.595Z,15.66
2022-10-02T09:54:49.566Z,15.66
2022-10-02T09:55:49.557Z,15.66
2022-10-02T09:56:49.846Z,15.65
2022-10-02T09:57:49.526Z,15.62
2022-10-02T09:58:49.525Z,15.63
2022-10-02T09:59:49.522Z,15.63
2022-10-02T10:00:49.569Z,15.63
2022-10-02T10:01:49.604Z,15.66
2022-10-02T10:02:49.531Z,15.68
2022-10-02T10:03:49.465Z,15.69
2022-10-02T10:05:04.956Z,15.69
2022-10-02T10:05:50.456Z,15.73
2022-10-02T10:06:49.447Z,15.77
2022-10-02T10:07:49.476Z,15.77
2022-10-02T10:08:49.417Z,15.83
2022-10-02T10:09:49.395Z,15.85
2022-10-02T10:10:49.396Z,15.85
2022-10-02T10:11:49.388Z,15.90
2022-10-02T10:12:49.377Z,15.90
2022-10-02T10:13:52.546Z,15.91
2022-10-02T10:14:49.361Z,15.95
2022-10-02T10:15:49.336Z,15.98
2022-10-02T10:16:49.363Z,15.99
2022-10-02T10:17:49.354Z,16.03
2022-10-02T10:18:49.364Z,16.03
2022-10-02T10:19:49.295Z,16.05
2022-10-02T10:20:49.287Z,16.06
2022-10-02T10:21:49.333Z,16.05
2022-10-02T10:22:49.285Z,16.06
2022-10-02T10:23:49.275Z,16.08
2022-10-02T10:24:49.257Z,16.09
2022-10-02T10:25:49.227Z,16.09
2022-10-02T10:26:49.223Z,16.09
2022-10-02T10:27:49.290Z,16.09
2022-10-02T10:28:49.194Z,16.09
2022-10-02T10:29:49.234Z,16.08
2022-10-02T10:30:49.217Z,16.08
2022-10-02T10:31:49.254Z,16.09
2022-10-02T10:32:49.155Z,16.13
2022-10-02T10:33:49.135Z,16.14
2022-10-02T10:34:49.125Z,16.18
2022-10-02T10:35:49.115Z,16.21
2022-10-02T10:36:49.105Z,16.22
2022-10-02T10:37:49.126Z,16.24
2022-10-02T10:38:49.097Z,16.28
2022-10-02T10:39:49.082Z,16.29
2022-10-02T10:40:49.082Z,16.33
2022-10-02T10:41:49.056Z,16.36
2022-10-02T10:43:06.551Z,16.39
2022-10-02T10:43:50.055Z,16.42
2022-10-02T10:44:49.027Z,16.42
2022-10-02T10:45:54.331Z,16.43
2022-10-02T10:46:49.003Z,16.43
2022-10-02T10:47:49.006Z,16.43
2022-10-02T10:48:49.858Z,16.42
2022-10-02T10:49:48.967Z,16.39
2022-10-02T10:50:48.956Z,16.36
2022-10-02T10:51:48.967Z,16.34
2022-10-02T10:52:48.937Z,16.29
2022-10-02T10:53:48.916Z,16.29
2022-10-02T10:54:48.905Z,16.25
2022-10-02T10:55:48.925Z,16.25
2022-10-02T10:56:48.896Z,16.21
2022-10-02T10:57:48.878Z,16.21
2022-10-02T10:58:48.899Z,16.21
2022-10-02T10:59:48.870Z,16.21
2022-10-02T11:00:48.918Z,16.18
2022-10-02T11:01:48.836Z,16.18
2022-10-02T11:02:48.826Z,16.16
2022-10-02T11:03:48.855Z,16.16
2022-10-02T11:04:48.804Z,16.16
2022-10-02T11:05:48.793Z,16.18
2022-10-02T11:06:48.788Z,16.21
2022-10-02T11:07:48.838Z,16.22
2022-10-02T11:08:48.770Z,16.22
2022-10-02T11:09:48.766Z,16.24
2022-10-02T11:10:48.738Z,16.28
2022-10-02T11:11:48.747Z,16.34
2022-10-02T11:12:48.716Z,16.46
2022-10-02T11:13:48.706Z,16.54
2022-10-02T11:14:48.697Z,16.62
2022-10-02T11:15:48.736Z,16.72
2022-10-02T11:16:48.753Z,16.80
2022-10-02T11:17:48.699Z,16.90
2022-10-02T11:18:48.660Z,16.97
2022-10-02T11:19:48.657Z,17.07
2022-10-02T11:20:48.626Z,17.19
2022-10-02T11:21:48.656Z,17.25
2022-10-02T11:22:48.637Z,17.28
2022-10-02T11:23:48.599Z,17.31
2022-10-02T11:24:48.596Z,17.34
2022-10-02T11:25:48.577Z,17.37
2022-10-02T11:26:48.570Z,17.43
2022-10-02T11:27:48.608Z,17.46
2022-10-02T11:28:48.587Z,17.49
2022-10-02T11:29:48.535Z,17.52
2022-10-02T11:30:48.531Z,17.54
2022-10-02T11:31:48.545Z,17.53
2022-10-02T11:32:48.510Z,17.52
2022-10-02T11:33:48.516Z,17.52
2022-10-02T11:34:48.539Z,17.47
2022-10-02T11:35:48.500Z,17.49
2022-10-02T11:36:48.457Z,17.50
2022-10-02T11:37:48.445Z,17.52
2022-10-02T11:38:48.450Z,17.53
2022-10-02T11:39:48.428Z,17.53
2022-10-02T11:40:48.416Z,17.56
2022-10-02T11:41:51.819Z,17.65
2022-10-02T11:42:48.386Z,17.69
2022-10-02T11:43:48.379Z,17.69
2022-10-02T11:44:48.377Z,17.68
2022-10-02T11:45:48.397Z,17.59
2022-10-02T11:46:48.348Z,17.56
2022-10-02T11:47:48.446Z,17.45
2022-10-02T11:48:48.327Z,17.35
2022-10-02T11:49:48.315Z,17.30
2022-10-02T11:50:48.307Z,17.24
2022-10-02T11:51:48.307Z,17.19
2022-10-02T11:52:48.654Z,17.19
2022-10-02T11:53:48.308Z,17.16
2022-10-02T11:54:48.308Z,17.16
2022-10-02T11:55:48.247Z,17.12
2022-10-02T11:56:48.237Z,17.09
2022-10-02T11:57:48.217Z,17.04
2022-10-02T11:58:48.229Z,16.98
2022-10-02T11:59:48.206Z,16.97
2022-10-02T12:00:48.248Z,16.97
2022-10-02T12:01:48.187Z,16.95
2022-10-02T12:02:48.262Z,16.95
2022-10-02T12:03:48.168Z,16.94
2022-10-02T12:04:48.168Z,16.95
2022-10-02T12:05:48.147Z,16.95
2022-10-02T12:06:48.199Z,16.92
2022-10-02T12:07:48.133Z,16.94
2022-10-02T12:08:48.108Z,16.95
2022-10-02T12:09:48.109Z,16.98
2022-10-02T12:10:48.097Z,17.01
2022-10-02T12:11:48.068Z,17.06
2022-10-02T12:12:48.098Z,17.07
2022-10-02T12:13:48.063Z,17.09
2022-10-02T12:14:48.047Z,17.12
2022-10-02T12:15:53.329Z,17.12
2022-10-02T12:16:48.110Z,17.12
2022-10-02T12:17:48.028Z,17.13
2022-10-02T12:18:48.067Z,17.14
2022-10-02T12:19:48.025Z,17.13
2022-10-02T12:20:47.997Z,17.13
2022-10-02T12:21:47.966Z,17.12
2022-10-02T12:22:47.957Z,17.12
2022-10-02T12:23:47.938Z,17.12
2022-10-02T12:24:51.389Z,17.12
2022-10-02T12:25:48.968Z,17.12
2022-10-02T12:26:47.916Z,17.12
2022-10-02T12:27:47.935Z,17.09
2022-10-02T12:28:47.899Z,17.09
2022-10-02T12:29:47.877Z,17.07
2022-10-02T12:30:47.913Z,17.06
2022-10-02T12:31:47.919Z,17.04
2022-10-02T12:32:47.867Z,17.04
2022-10-02T12:33:49.240Z,17.06
2022-10-02T12:34:47.828Z,17.06
2022-10-02T12:35:47.808Z,17.06
2022-10-02T12:36:47.839Z,17.06
2022-10-02T12:37:47.800Z,17.09
2022-10-02T12:38:47.778Z,17.09
2022-10-02T12:39:47.769Z,17.07
2022-10-02T12:40:47.778Z,17.06
2022-10-02T12:41:47.750Z,17.07
2022-10-02T12:42:47.741Z,17.07
2022-10-02T12:43:47.729Z,17.04
2022-10-02T12:44:47.876Z,16.99
2022-10-02T12:45:47.843Z,17.01
2022-10-02T12:46:47.720Z,17.01
2022-10-02T12:47:47.680Z,17.02
2022-10-02T12:48:47.668Z,17.04
2022-10-02T12:49:47.680Z,17.04
2022-10-02T12:50:47.648Z,17.06
2022-10-02T12:51:47.669Z,17.07
2022-10-02T12:52:47.630Z,17.10